sensor_id;sensor_type;location;lat;lon;timestamp;pressure;altitude;pressure_sealevel;temperature;humidity
9261;BME280;4667;42.726;23.252;2022-10-18T00:00:11;96761.50;;;6.51;nan
9261;BME280;4667;42.726;23.252;2022-10-18T00:02:38;96767.06;;;6.46;nan
9261;BME280;4667;42.726;23.252;2022-10-18T00:05:05;96768.03;;;6.42;nan
9261;BME280;4667;42.726;23.252;2022-10-18T00:07:32;96755.88;;;6.36;nan
9261;BME280;4667;42.726;23.252;2022-10-18T00:09:59;96756.66;;;6.36;nan
9261;BME280;4667;42.726;23.252;2022-10-18T00:12:25;96755.22;;;6.39;nan
9261;BME280;4667;42.726;23.252;2022-10-18T00:14:52;96751.78;;;6.30;nan
9261;BME280;4667;42.726;23.252;2022-10-18T00:17:20;96748.28;;;6.29;nan
9261;BME280;4667;42.726;23.252;2022-10-18T00:19:52;96753.97;;;6.28;nan
9261;BME280;4667;42.726;23.252;2022-10-18T00:22:29;96745.63;;;6.21;nan
9261;BME280;4667;42.726;23.252;2022-10-18T00:24:56;96736.00;;;6.20;nan
9261;BME280;4667;42.726;23.252;2022-10-18T00:27:23;96732.50;;;6.19;nan
9261;BME280;4667;42.726;23.252;2022-10-18T00:29:51;96740.28;;;6.12;nan
9261;BME280;4667;42.726;23.252;2022-10-18T00:32:17;96726.66;;;6.08;nan
9261;BME280;4667;42.726;23.252;2022-10-18T00:34:46;96724.31;;;6.07;nan
9261;BME280;4667;42.726;23.252;2022-10-18T00:37:12;96730.50;;;5.90;nan
9261;BME280;4667;42.726;23.252;2022-10-18T00:39:39;96727.31;;;5.97;nan
9261;BME280;4667;42.726;23.252;2022-10-18T00:42:06;96725.13;;;5.90;nan
9261;BME280;4667;42.726;23.252;2022-10-18T00:45:05;96728.59;;;5.91;nan
9261;BME280;4667;42.726;23.252;2022-10-18T00:47:38;96726.69;;;5.91;nan
9261;BME280;4667;42.726;23.252;2022-10-18T00:50:07;96717.84;;;5.82;nan
9261;BME280;4667;42.726;23.252;2022-10-18T00:52:36;96710.22;;;5.84;nan
9261;BME280;4667;42.726;23.252;2022-10-18T00:55:05;96718.47;;;5.79;nan
9261;BME280;4667;42.726;23.252;2022-10-18T00:57:33;96710.75;;;5.78;nan
9261;BME280;4667;42.726;23.252;2022-10-18T01:00:01;96716.75;;;5.74;nan
9261;BME280;4667;42.726;23.252;2022-10-18T01:02:31;96720.53;;;5.73;nan
9261;BME280;4667;42.726;23.252;2022-10-18T01:04:58;96722.16;;;5.66;nan
9261;BME280;4667;42.726;23.252;2022-10-18T01:07:43;96722.91;;;5.66;nan
9261;BME280;4667;42.726;23.252;2022-10-18T01:10:24;96714.69;;;5.54;nan
9261;BME280;4667;42.726;23.252;2022-10-18T01:13:01;96708.69;;;5.49;nan
9261;BME280;4667;42.726;23.252;2022-10-18T01:15:41;96714.72;;;5.37;nan
9261;BME280;4667;42.726;23.252;2022-10-18T01:18:17;96715.50;;;5.38;nan
9261;BME280;4667;42.726;23.252;2022-10-18T01:21:06;96707.78;;;5.36;nan
9261;BME280;4667;42.726;23.252;2022-10-18T01:24:01;96705.22;;;5.31;nan
9261;BME280;4667;42.726;23.252;2022-10-18T01:29:33;96703.81;;;5.25;nan
9261;BME280;4667;42.726;23.252;2022-10-18T01:32:09;96712.19;;;5.15;nan
9261;BME280;4667;42.726;23.252;2022-10-18T01:34:39;96706.47;;;5.08;nan
9261;BME280;4667;42.726;23.252;2022-10-18T01:37:12;96703.00;;;5.07;nan
9261;BME280;4667;42.726;23.252;2022-10-18T01:39:42;96708.22;;;5.04;nan
9261;BME280;4667;42.726;23.252;2022-10-18T01:42:13;96699.22;;;5.00;nan
9261;BME280;4667;42.726;23.252;2022-10-18T01:44:42;96698.75;;;4.98;nan
9261;BME280;4667;42.726;23.252;2022-10-18T01:47:13;96697.47;;;4.86;nan
9261;BME280;4667;42.726;23.252;2022-10-18T01:49:44;96697.28;;;4.74;nan
9261;BME280;4667;42.726;23.252;2022-10-18T01:52:48;96687.66;;;4.73;nan
9261;BME280;4667;42.726;23.252;2022-10-18T01:58:48;96694.09;;;4.55;nan
9261;BME280;4667;42.726;23.252;2022-10-18T02:01:49;96695.81;;;4.51;nan
9261;BME280;4667;42.726;23.252;2022-10-18T02:04:41;96691.53;;;4.50;nan
9261;BME280;4667;42.726;23.252;2022-10-18T02:07:36;96683.44;;;4.33;nan
9261;BME280;4667;42.726;23.252;2022-10-18T02:10:24;96684.09;;;4.38;nan
9261;BME280;4667;42.726;23.252;2022-10-18T02:12:58;96686.47;;;4.40;nan
9261;BME280;4667;42.726;23.252;2022-10-18T02:15:36;96680.63;;;4.38;nan
9261;BME280;4667;42.726;23.252;2022-10-18T02:18:07;96686.28;;;4.36;nan
9261;BME280;4667;42.726;23.252;2022-10-18T02:20:46;96684.09;;;4.38;nan
9261;BME280;4667;42.726;23.252;2022-10-18T02:23:24;96683.16;;;4.34;nan
9261;BME280;4667;42.726;23.252;2022-10-18T02:25:53;96686.44;;;4.31;nan
9261;BME280;4667;42.726;23.252;2022-10-18T02:28:41;96680.91;;;4.28;nan
9261;BME280;4667;42.726;23.252;2022-10-18T02:31:12;96686.44;;;4.31;nan
9261;BME280;4667;42.726;23.252;2022-10-18T02:33:56;96689.13;;;4.31;nan
9261;BME280;4667;42.726;23.252;2022-10-18T02:36:37;96693.09;;;4.34;nan
9261;BME280;4667;42.726;23.252;2022-10-18T02:39:18;96689.56;;;4.25;nan
9261;BME280;4667;42.726;23.252;2022-10-18T02:41:50;96688.63;;;4.29;nan
9261;BME280;4667;42.726;23.252;2022-10-18T02:44:34;96685.28;;;4.24;nan
9261;BME280;4667;42.726;23.252;2022-10-18T02:47:09;96684.03;;;4.21;nan
9261;BME280;4667;42.726;23.252;2022-10-18T02:49:39;96691.78;;;4.23;nan
9261;BME280;4667;42.726;23.252;2022-10-18T02:52:10;96684.19;;;4.25;nan
9261;BME280;4667;42.726;23.252;2022-10-18T02:54:40;96690.53;;;4.29;nan
9261;BME280;4667;42.726;23.252;2022-10-18T02:57:07;96691.78;;;4.23;nan
9261;BME280;4667;42.726;23.252;2022-10-18T02:59:40;96694.63;;;4.26;nan
9261;BME280;4667;42.726;23.252;2022-10-18T03:02:06;96693.34;;;4.24;nan
9261;BME280;4667;42.726;23.252;2022-10-18T03:04:33;96687.81;;;4.20;nan
9261;BME280;4667;42.726;23.252;2022-10-18T03:07:06;96694.78;;;4.21;nan
9261;BME280;4667;42.726;23.252;2022-10-18T03:09:34;96695.91;;;4.29;nan
9261;BME280;4667;42.726;23.252;2022-10-18T03:12:05;96682.63;;;4.24;nan
9261;BME280;4667;42.726;23.252;2022-10-18T03:14:32;96681.50;;;4.25;nan
9261;BME280;4667;42.726;23.252;2022-10-18T03:16:59;96681.25;;;4.35;nan
9261;BME280;4667;42.726;23.252;2022-10-18T03:19:45;96685.84;;;4.34;nan
9261;BME280;4667;42.726;23.252;2022-10-18T03:22:27;96696.22;;;4.36;nan
9261;BME280;4667;42.726;23.252;2022-10-18T03:24:57;96698.75;;;4.32;nan
9261;BME280;4667;42.726;23.252;2022-10-18T03:27:27;96688.16;;;4.27;nan
9261;BME280;4667;42.726;23.252;2022-10-18T03:30:21;96686.72;;;4.21;nan
9261;BME280;4667;42.726;23.252;2022-10-18T03:33:08;96686.72;;;4.21;nan
9261;BME280;4667;42.726;23.252;2022-10-18T03:35:42;96688.97;;;4.28;nan
9261;BME280;4667;42.726;23.252;2022-10-18T03:38:09;96684.19;;;4.25;nan
9261;BME280;4667;42.726;23.252;2022-10-18T03:40:51;96687.38;;;4.27;nan
9261;BME280;4667;42.726;23.252;2022-10-18T03:43:21;96690.66;;;4.24;nan
9261;BME280;4667;42.726;23.252;2022-10-18T03:45:51;96689.41;;;4.21;nan
9261;BME280;4667;42.726;23.252;2022-10-18T03:49:03;96690.81;;;4.19;nan
9261;BME280;4667;42.726;23.252;2022-10-18T03:51:52;96699.94;;;4.18;nan
9261;BME280;4667;42.726;23.252;2022-10-18T03:54:42;96709.09;;;4.17;nan
9261;BME280;4667;42.726;23.252;2022-10-18T03:57:11;96708.91;;;4.13;nan
9261;BME280;4667;42.726;23.252;2022-10-18T03:59:48;96708.41;;;4.02;nan
9261;BME280;4667;42.726;23.252;2022-10-18T04:02:33;96706.06;;;4.09;nan
9261;BME280;4667;42.726;23.252;2022-10-18T04:05:26;96707.59;;;4.02;nan
9261;BME280;4667;42.726;23.252;2022-10-18T04:08:04;96704.00;;;4.06;nan
9261;BME280;4667;42.726;23.252;2022-10-18T04:10:38;96692.16;;;3.99;nan
9261;BME280;4667;42.726;23.252;2022-10-18T04:13:09;96699.06;;;4.00;nan
9261;BME280;4667;42.726;23.252;2022-10-18T04:15:46;96702.88;;;3.99;nan
9261;BME280;4667;42.726;23.252;2022-10-18T04:18:15;96697.31;;;3.95;nan
9261;BME280;4667;42.726;23.252;2022-10-18T04:20:46;96690.88;;;3.96;nan
9261;BME280;4667;42.726;23.252;2022-10-18T04:23:13;96698.25;;;3.91;nan
9261;BME280;4667;42.726;23.252;2022-10-18T04:25:40;96703.97;;;3.98;nan
9261;BME280;4667;42.726;23.252;2022-10-18T04:28:06;96701.59;;;3.96;nan
9261;BME280;4667;42.726;23.252;2022-10-18T04:30:34;96696.53;;;3.95;nan
9261;BME280;4667;42.726;23.252;2022-10-18T04:33:01;96707.53;;;3.85;nan
9261;BME280;4667;42.726;23.252;2022-10-18T04:35:28;96699.22;;;3.95;nan
9261;BME280;4667;42.726;23.252;2022-10-18T04:37:55;96701.94;;;4.03;nan
9261;BME280;4667;42.726;23.252;2022-10-18T04:40:21;96699.28;;;4.12;nan
9261;BME280;4667;42.726;23.252;2022-10-18T04:42:48;96695.50;;;4.13;nan
9261;BME280;4667;42.726;23.252;2022-10-18T04:45:15;96694.41;;;4.14;nan
9261;BME280;4667;42.726;23.252;2022-10-18T04:47:43;96688.63;;;4.21;nan
9261;BME280;4667;42.726;23.252;2022-10-18T04:50:09;96690.34;;;4.17;nan
9261;BME280;4667;42.726;23.252;2022-10-18T04:52:36;96687.16;;;4.15;nan
9261;BME280;4667;42.726;23.252;2022-10-18T04:55:03;96688.31;;;4.31;nan
9261;BME280;4667;42.726;23.252;2022-10-18T04:57:30;96683.75;;;4.31;nan
9261;BME280;4667;42.726;23.252;2022-10-18T04:59:57;96678.88;;;4.33;nan
9261;BME280;4667;42.726;23.252;2022-10-18T05:02:24;96678.88;;;4.42;nan
9261;BME280;4667;42.726;23.252;2022-10-18T05:04:52;96689.47;;;4.47;nan
9261;BME280;4667;42.726;23.252;2022-10-18T05:07:19;96688.72;;;4.55;nan
9261;BME280;4667;42.726;23.252;2022-10-18T05:09:46;96684.13;;;4.56;nan
9261;BME280;4667;42.726;23.252;2022-10-18T05:12:12;96681.00;;;4.62;nan
9261;BME280;4667;42.726;23.252;2022-10-18T05:14:39;96686.06;;;4.72;nan
9261;BME280;4667;42.726;23.252;2022-10-18T05:17:06;96685.13;;;4.77;nan
9261;BME280;4667;42.726;23.252;2022-10-18T05:19:32;96678.66;;;4.78;nan
9261;BME280;4667;42.726;23.252;2022-10-18T05:22:07;96680.25;;;4.87;nan
9261;BME280;4667;42.726;23.252;2022-10-18T05:24:34;96677.88;;;4.94;nan
9261;BME280;4667;42.726;23.252;2022-10-18T05:27:48;96673.78;;;4.88;nan
9261;BME280;4667;42.726;23.252;2022-10-18T05:30:36;96682.47;;;5.03;nan
9261;BME280;4667;42.726;23.252;2022-10-18T05:33:05;96685.16;;;5.03;nan
9261;BME280;4667;42.726;23.252;2022-10-18T05:35:34;96684.22;;;5.16;nan
9261;BME280;4667;42.726;23.252;2022-10-18T05:38:06;96683.13;;;5.17;nan
9261;BME280;4667;42.726;23.252;2022-10-18T05:40:33;96681.53;;;5.24;nan
9261;BME280;4667;42.726;23.252;2022-10-18T05:42:59;96685.81;;;5.34;nan
9261;BME280;4667;42.726;23.252;2022-10-18T05:45:26;96681.84;;;5.40;nan
9261;BME280;4667;42.726;23.252;2022-10-18T05:47:53;96691.66;;;5.36;nan
9261;BME280;4667;42.726;23.252;2022-10-18T05:50:20;96696.53;;;5.51;nan
9261;BME280;4667;42.726;23.252;2022-10-18T05:52:47;96691.94;;;5.43;nan
9261;BME280;4667;42.726;23.252;2022-10-18T05:55:15;96687.06;;;5.54;nan
9261;BME280;4667;42.726;23.252;2022-10-18T05:57:42;96689.25;;;5.52;nan
9261;BME280;4667;42.726;23.252;2022-10-18T06:00:10;96687.69;;;5.59;nan
9261;BME280;4667;42.726;23.252;2022-10-18T06:02:37;96689.41;;;5.64;nan
9261;BME280;4667;42.726;23.252;2022-10-18T06:05:04;96685.28;;;5.75;nan
9261;BME280;4667;42.726;23.252;2022-10-18T06:07:31;96691.41;;;5.84;nan
9261;BME280;4667;42.726;23.252;2022-10-18T06:09:58;96674.03;;;5.90;nan
9261;BME280;4667;42.726;23.252;2022-10-18T06:12:26;96683.19;;;5.98;nan
9261;BME280;4667;42.726;23.252;2022-10-18T06:14:53;96679.69;;;6.06;nan
9261;BME280;4667;42.726;23.252;2022-10-18T06:17:20;96681.53;;;6.14;nan
9261;BME280;4667;42.726;23.252;2022-10-18T06:19:46;96681.66;;;6.26;nan
9261;BME280;4667;42.726;23.252;2022-10-18T06:22:13;96681.63;;;6.35;nan
9261;BME280;4667;42.726;23.252;2022-10-18T06:24:40;96683.16;;;6.44;nan
9261;BME280;4667;42.726;23.252;2022-10-18T06:27:07;96674.25;;;6.52;nan
9261;BME280;4667;42.726;23.252;2022-10-18T06:29:35;96673.75;;;6.59;nan
9261;BME280;4667;42.726;23.252;2022-10-18T06:32:02;96664.31;;;6.74;nan
9261;BME280;4667;42.726;23.252;2022-10-18T06:34:35;96668.03;;;6.90;nan
9261;BME280;4667;42.726;23.252;2022-10-18T06:37:02;96675.22;;;6.98;nan
9261;BME280;4667;42.726;23.252;2022-10-18T06:39:29;96681.47;;;7.11;nan
9261;BME280;4667;42.726;23.252;2022-10-18T06:41:56;96678.22;;;7.26;nan
9261;BME280;4667;42.726;23.252;2022-10-18T06:44:22;96672.47;;;7.48;nan
9261;BME280;4667;42.726;23.252;2022-10-18T06:46:51;96675.84;;;7.57;nan
9261;BME280;4667;42.726;23.252;2022-10-18T06:49:18;96672.22;;;7.74;nan
9261;BME280;4667;42.726;23.252;2022-10-18T06:51:45;96675.59;;;7.83;nan
9261;BME280;4667;42.726;23.252;2022-10-18T06:54:13;96675.97;;;7.94;nan
9261;BME280;4667;42.726;23.252;2022-10-18T06:56:40;96667.56;;;8.07;nan
9261;BME280;4667;42.726;23.252;2022-10-18T06:59:07;96666.34;;;8.17;nan
9261;BME280;4667;42.726;23.252;2022-10-18T07:01:33;96672.66;;;8.21;nan
9261;BME280;4667;42.726;23.252;2022-10-18T07:04:02;96668.19;;;8.37;nan
9261;BME280;4667;42.726;23.252;2022-10-18T07:06:28;96672.03;;;8.73;nan
9261;BME280;4667;42.726;23.252;2022-10-18T07:08:55;96664.72;;;9.25;nan
9261;BME280;4667;42.726;23.252;2022-10-18T07:11:24;96668.22;;;9.81;nan
9261;BME280;4667;42.726;23.252;2022-10-18T07:13:51;96659.56;;;10.35;nan
9261;BME280;4667;42.726;23.252;2022-10-18T07:16:19;96655.38;;;10.88;nan
9261;BME280;4667;42.726;23.252;2022-10-18T07:18:48;96661.88;;;11.38;nan
9261;BME280;4667;42.726;23.252;2022-10-18T07:21:18;96666.19;;;11.77;nan
9261;BME280;4667;42.726;23.252;2022-10-18T07:23:45;96660.00;;;12.22;nan
9261;BME280;4667;42.726;23.252;2022-10-18T07:26:15;96646.88;;;12.74;nan
9261;BME280;4667;42.726;23.252;2022-10-18T07:28:43;96644.78;;;12.41;nan
9261;BME280;4667;42.726;23.252;2022-10-18T07:31:11;96640.97;;;12.68;nan
9261;BME280;4667;42.726;23.252;2022-10-18T07:33:38;96646.81;;;12.96;nan
9261;BME280;4667;42.726;23.252;2022-10-18T07:36:09;96645.56;;;12.90;nan
9261;BME280;4667;42.726;23.252;2022-10-18T07:38:37;96635.50;;;13.21;nan
9261;BME280;4667;42.726;23.252;2022-10-18T07:41:06;96634.81;;;13.27;nan
9261;BME280;4667;42.726;23.252;2022-10-18T07:43:33;96626.22;;;13.92;nan
9261;BME280;4667;42.726;23.252;2022-10-18T07:46:02;96625.47;;;14.36;nan
9261;BME280;4667;42.726;23.252;2022-10-18T07:48:29;96624.56;;;14.65;nan
9261;BME280;4667;42.726;23.252;2022-10-18T07:50:57;96617.38;;;14.97;nan
9261;BME280;4667;42.726;23.252;2022-10-18T07:53:25;96619.19;;;15.48;nan
9261;BME280;4667;42.726;23.252;2022-10-18T07:55:55;96619.47;;;15.25;nan
9261;BME280;4667;42.726;23.252;2022-10-18T07:58:22;96622.63;;;15.31;nan
9261;BME280;4667;42.726;23.252;2022-10-18T08:00:49;96618.78;;;15.42;nan
9261;BME280;4667;42.726;23.252;2022-10-18T08:03:16;96611.53;;;15.89;nan
9261;BME280;4667;42.726;23.252;2022-10-18T08:05:42;96612.34;;;16.00;nan
9261;BME280;4667;42.726;23.252;2022-10-18T08:08:09;96597.94;;;16.63;nan
9261;BME280;4667;42.726;23.252;2022-10-18T08:10:36;96601.38;;;16.99;nan
9261;BME280;4667;42.726;23.252;2022-10-18T08:13:04;96601.22;;;17.56;nan
9261;BME280;4667;42.726;23.252;2022-10-18T08:15:31;96594.09;;;17.73;nan
9261;BME280;4667;42.726;23.252;2022-10-18T08:17:57;96586.38;;;18.19;nan
9261;BME280;4667;42.726;23.252;2022-10-18T08:20:24;96587.22;;;18.64;nan
9261;BME280;4667;42.726;23.252;2022-10-18T08:22:51;96576.72;;;18.52;nan
9261;BME280;4667;42.726;23.252;2022-10-18T08:25:17;96579.91;;;18.44;nan
9261;BME280;4667;42.726;23.252;2022-10-18T08:27:44;96582.25;;;18.45;nan
9261;BME280;4667;42.726;23.252;2022-10-18T08:30:15;96575.88;;;18.11;nan
9261;BME280;4667;42.726;23.252;2022-10-18T08:32:41;96565.94;;;17.58;nan
9261;BME280;4667;42.726;23.252;2022-10-18T08:35:08;96564.69;;;16.72;nan
9261;BME280;4667;42.726;23.252;2022-10-18T08:37:35;96559.97;;;16.87;nan
9261;BME280;4667;42.726;23.252;2022-10-18T08:40:02;96543.22;;;16.74;nan
9261;BME280;4667;42.726;23.252;2022-10-18T08:42:43;96548.69;;;16.21;nan
9261;BME280;4667;42.726;23.252;2022-10-18T08:45:18;96544.00;;;15.79;nan
9261;BME280;4667;42.726;23.252;2022-10-18T08:47:46;96542.03;;;16.15;nan
9261;BME280;4667;42.726;23.252;2022-10-18T08:50:18;96536.19;;;16.13;nan
9261;BME280;4667;42.726;23.252;2022-10-18T08:52:50;96529.16;;;15.87;nan
9261;BME280;4667;42.726;23.252;2022-10-18T08:55:23;96534.22;;;15.92;nan
9261;BME280;4667;42.726;23.252;2022-10-18T08:57:52;96529.94;;;15.77;nan
9261;BME280;4667;42.726;23.252;2022-10-18T09:00:22;96533.84;;;16.11;nan
9261;BME280;4667;42.726;23.252;2022-10-18T09:03:04;96530.34;;;16.07;nan
9261;BME280;4667;42.726;23.252;2022-10-18T09:05:40;96523.28;;;16.49;nan
9261;BME280;4667;42.726;23.252;2022-10-18T09:08:33;96523.22;;;16.88;nan
9261;BME280;4667;42.726;23.252;2022-10-18T09:11:11;96519.63;;;17.16;nan
9261;BME280;4667;42.726;23.252;2022-10-18T09:14:05;96519.03;;;17.49;nan
9261;BME280;4667;42.726;23.252;2022-10-18T09:16:44;96520.97;;;17.63;nan
9261;BME280;4667;42.726;23.252;2022-10-18T09:19:21;96507.41;;;17.97;nan
9261;BME280;4667;42.726;23.252;2022-10-18T09:21:53;96502.53;;;18.18;nan
9261;BME280;4667;42.726;23.252;2022-10-18T09:24:25;96502.91;;;18.65;nan
9261;BME280;4667;42.726;23.252;2022-10-18T09:26:56;96500.78;;;19.47;nan
9261;BME280;4667;42.726;23.252;2022-10-18T09:29:38;96491.28;;;20.52;nan
9261;BME280;4667;42.726;23.252;2022-10-18T09:32:21;96491.47;;;21.24;nan
9261;BME280;4667;42.726;23.252;2022-10-18T09:34:51;96490.84;;;20.97;nan
9261;BME280;4667;42.726;23.252;2022-10-18T09:37:19;96488.75;;;22.28;nan
9261;BME280;4667;42.726;23.252;2022-10-18T09:39:49;96481.91;;;23.07;nan
9261;BME280;4667;42.726;23.252;2022-10-18T09:42:20;96479.03;;;22.98;nan
9261;BME280;4667;42.726;23.252;2022-10-18T09:44:54;96480.16;;;23.54;nan
9261;BME280;4667;42.726;23.252;2022-10-18T09:47:27;96469.75;;;24.22;nan
9261;BME280;4667;42.726;23.252;2022-10-18T09:49:59;96478.38;;;24.71;nan
9261;BME280;4667;42.726;23.252;2022-10-18T09:52:31;96473.81;;;24.90;nan
9261;BME280;4667;42.726;23.252;2022-10-18T09:55:04;96460.94;;;25.27;nan
9261;BME280;4667;42.726;23.252;2022-10-18T09:57:37;96466.38;;;26.41;nan
9261;BME280;4667;42.726;23.252;2022-10-18T10:00:14;96468.53;;;25.57;nan
9261;BME280;4667;42.726;23.252;2022-10-18T10:02:43;96457.00;;;26.75;nan
9261;BME280;4667;42.726;23.252;2022-10-18T10:05:11;96453.84;;;25.78;nan
9261;BME280;4667;42.726;23.252;2022-10-18T10:07:42;96437.31;;;25.44;nan
9261;BME280;4667;42.726;23.252;2022-10-18T10:10:14;96436.53;;;25.74;nan
9261;BME280;4667;42.726;23.252;2022-10-18T10:12:42;96434.63;;;26.02;nan
9261;BME280;4667;42.726;23.252;2022-10-18T10:15:16;96429.00;;;26.24;nan
9261;BME280;4667;42.726;23.252;2022-10-18T10:17:53;96425.09;;;26.03;nan
9261;BME280;4667;42.726;23.252;2022-10-18T10:20:22;96399.19;;;27.06;nan
9261;BME280;4667;42.726;23.252;2022-10-18T10:22:50;96396.44;;;26.88;nan
9261;BME280;4667;42.726;23.252;2022-10-18T10:25:25;96401.50;;;27.17;nan
9261;BME280;4667;42.726;23.252;2022-10-18T10:27:53;96389.34;;;28.13;nan
9261;BME280;4667;42.726;23.252;2022-10-18T10:30:23;96391.94;;;27.60;nan
9261;BME280;4667;42.726;23.252;2022-10-18T10:32:53;96389.16;;;27.60;nan
9261;BME280;4667;42.726;23.252;2022-10-18T10:35:27;96385.63;;;28.40;nan
9261;BME280;4667;42.726;23.252;2022-10-18T10:37:55;96379.34;;;27.74;nan
9261;BME280;4667;42.726;23.252;2022-10-18T10:40:22;96367.75;;;27.33;nan
9261;BME280;4667;42.726;23.252;2022-10-18T10:42:54;96360.56;;;28.16;nan
9261;BME280;4667;42.726;23.252;2022-10-18T10:45:22;96356.56;;;27.51;nan
9261;BME280;4667;42.726;23.252;2022-10-18T10:47:52;96350.53;;;27.11;nan
9261;BME280;4667;42.726;23.252;2022-10-18T10:50:23;96341.88;;;27.09;nan
9261;BME280;4667;42.726;23.252;2022-10-18T10:52:51;96338.94;;;27.45;nan
9261;BME280;4667;42.726;23.252;2022-10-18T10:55:19;96334.72;;;27.83;nan
9261;BME280;4667;42.726;23.252;2022-10-18T10:57:50;96329.50;;;27.43;nan
9261;BME280;4667;42.726;23.252;2022-10-18T11:00:38;96326.28;;;27.35;nan
9261;BME280;4667;42.726;23.252;2022-10-18T11:03:12;96326.22;;;27.86;nan
9261;BME280;4667;42.726;23.252;2022-10-18T11:05:44;96316.91;;;28.52;nan
9261;BME280;4667;42.726;23.252;2022-10-18T11:08:14;96315.66;;;28.67;nan
9261;BME280;4667;42.726;23.252;2022-10-18T11:10:53;96312.31;;;28.78;nan
9261;BME280;4667;42.726;23.252;2022-10-18T11:13:32;96301.88;;;29.52;nan
9261;BME280;4667;42.726;23.252;2022-10-18T11:16:11;96301.22;;;29.28;nan
9261;BME280;4667;42.726;23.252;2022-10-18T11:18:42;96291.66;;;28.85;nan
9261;BME280;4667;42.726;23.252;2022-10-18T11:21:15;96298.38;;;28.78;nan
9261;BME280;4667;42.726;23.252;2022-10-18T11:23:43;96288.00;;;28.93;nan
9261;BME280;4667;42.726;23.252;2022-10-18T11:26:23;96283.28;;;28.85;nan
9261;BME280;4667;42.726;23.252;2022-10-18T11:29:16;96272.13;;;28.85;nan
9261;BME280;4667;42.726;23.252;2022-10-18T11:31:50;96264.34;;;28.89;nan
9261;BME280;4667;42.726;23.252;2022-10-18T11:34:32;96267.25;;;29.29;nan
9261;BME280;4667;42.726;23.252;2022-10-18T11:37:11;96255.47;;;29.05;nan
9261;BME280;4667;42.726;23.252;2022-10-18T11:39:46;96245.94;;;29.32;nan
9261;BME280;4667;42.726;23.252;2022-10-18T11:42:21;96248.88;;;29.37;nan
9261;BME280;4667;42.726;23.252;2022-10-18T11:45:03;96244.22;;;29.69;nan
9261;BME280;4667;42.726;23.252;2022-10-18T11:47:47;96236.81;;;29.66;nan
9261;BME280;4667;42.726;23.252;2022-10-18T11:50:24;96240.84;;;29.85;nan
9261;BME280;4667;42.726;23.252;2022-10-18T11:53:05;96233.50;;;30.02;nan
9261;BME280;4667;42.726;23.252;2022-10-18T11:55:49;96217.88;;;29.76;nan
9261;BME280;4667;42.726;23.252;2022-10-18T11:58:40;96224.44;;;30.13;nan
9261;BME280;4667;42.726;23.252;2022-10-18T12:01:14;96214.41;;;30.01;nan
9261;BME280;4667;42.726;23.252;2022-10-18T12:03:53;96214.25;;;29.70;nan
9261;BME280;4667;42.726;23.252;2022-10-18T12:06:29;96201.91;;;29.76;nan
9261;BME280;4667;42.726;23.252;2022-10-18T12:09:00;96201.50;;;29.28;nan
9261;BME280;4667;42.726;23.252;2022-10-18T12:11:30;96195.53;;;29.35;nan
9261;BME280;4667;42.726;23.252;2022-10-18T12:13:59;96190.44;;;29.74;nan
9261;BME280;4667;42.726;23.252;2022-10-18T12:16:29;96180.19;;;29.45;nan
9261;BME280;4667;42.726;23.252;2022-10-18T12:19:03;96178.22;;;29.31;nan
9261;BME280;4667;42.726;23.252;2022-10-18T12:21:36;96169.66;;;29.95;nan
9261;BME280;4667;42.726;23.252;2022-10-18T12:24:06;96164.75;;;30.42;nan
9261;BME280;4667;42.726;23.252;2022-10-18T12:26:36;96165.84;;;29.98;nan
9261;BME280;4667;42.726;23.252;2022-10-18T12:29:15;96160.22;;;30.19;nan
9261;BME280;4667;42.726;23.252;2022-10-18T12:31:48;96164.81;;;29.76;nan
9261;BME280;4667;42.726;23.252;2022-10-18T12:34:30;96155.00;;;29.60;nan
9261;BME280;4667;42.726;23.252;2022-10-18T12:37:12;96159.94;;;29.91;nan
9261;BME280;4667;42.726;23.252;2022-10-18T12:39:47;96161.13;;;30.10;nan
9261;BME280;4667;42.726;23.252;2022-10-18T12:42:17;96163.78;;;29.73;nan
9261;BME280;4667;42.726;23.252;2022-10-18T12:44:46;96148.22;;;30.13;nan
9261;BME280;4667;42.726;23.252;2022-10-18T12:47:20;96142.53;;;30.33;nan
9261;BME280;4667;42.726;23.252;2022-10-18T12:49:57;96138.72;;;29.79;nan
9261;BME280;4667;42.726;23.252;2022-10-18T12:52:28;96135.44;;;30.06;nan
9261;BME280;4667;42.726;23.252;2022-10-18T12:55:06;96129.97;;;30.17;nan
9261;BME280;4667;42.726;23.252;2022-10-18T12:58:01;96129.03;;;30.00;nan
9261;BME280;4667;42.726;23.252;2022-10-18T13:00:55;96123.53;;;30.11;nan
9261;BME280;4667;42.726;23.252;2022-10-18T13:06:20;96121.63;;;30.23;nan
9261;BME280;4667;42.726;23.252;2022-10-18T13:09:09;96121.41;;;30.00;nan
9261;BME280;4667;42.726;23.252;2022-10-18T13:11:41;96117.25;;;30.16;nan
9261;BME280;4667;42.726;23.252;2022-10-18T13:17:20;96108.00;;;29.58;nan
9261;BME280;4667;42.726;23.252;2022-10-18T13:20:00;96111.56;;;29.39;nan
9261;BME280;4667;42.726;23.252;2022-10-18T13:22:46;96105.16;;;29.33;nan
9261;BME280;4667;42.726;23.252;2022-10-18T13:25:22;96094.31;;;29.86;nan
9261;BME280;4667;42.726;23.252;2022-10-18T13:27:58;96101.53;;;29.47;nan
9261;BME280;4667;42.726;23.252;2022-10-18T13:30:42;96094.22;;;29.75;nan
9261;BME280;4667;42.726;23.252;2022-10-18T13:33:29;96100.47;;;29.44;nan
9261;BME280;4667;42.726;23.252;2022-10-18T13:35:57;96093.78;;;29.36;nan
9261;BME280;4667;42.726;23.252;2022-10-18T13:38:45;96090.06;;;29.25;nan
9261;BME280;4667;42.726;23.252;2022-10-18T13:41:17;96081.56;;;29.34;nan
9261;BME280;4667;42.726;23.252;2022-10-18T13:44:08;96082.41;;;29.19;nan
9261;BME280;4667;42.726;23.252;2022-10-18T13:53:03;96066.28;;;28.54;nan
9261;BME280;4667;42.726;23.252;2022-10-18T13:55:47;96062.66;;;28.68;nan
9261;BME280;4667;42.726;23.252;2022-10-18T13:58:23;96069.00;;;28.83;nan
9261;BME280;4667;42.726;23.252;2022-10-18T14:01:01;96058.47;;;28.93;nan
9261;BME280;4667;42.726;23.252;2022-10-18T14:03:44;96059.88;;;28.03;nan
9261;BME280;4667;42.726;23.252;2022-10-18T14:06:15;96059.03;;;27.68;nan
9261;BME280;4667;42.726;23.252;2022-10-18T14:08:45;96061.75;;;27.39;nan
9261;BME280;4667;42.726;23.252;2022-10-18T14:11:22;96065.72;;;27.23;nan
9261;BME280;4667;42.726;23.252;2022-10-18T14:14:00;96057.03;;;26.82;nan
9261;BME280;4667;42.726;23.252;2022-10-18T14:16:36;96053.38;;;27.24;nan
9261;BME280;4667;42.726;23.252;2022-10-18T14:19:15;96049.56;;;26.98;nan
9261;BME280;4667;42.726;23.252;2022-10-18T14:21:50;96040.09;;;27.04;nan
9261;BME280;4667;42.726;23.252;2022-10-18T14:24:23;96052.47;;;26.70;nan
9261;BME280;4667;42.726;23.252;2022-10-18T14:27:11;96044.44;;;26.72;nan
9261;BME280;4667;42.726;23.252;2022-10-18T14:29:43;96042.53;;;26.22;nan